Time,TemperatureF,DewpointF,PressureIn,WindDirection,WindDirectionDegrees,WindSpeedMPH,WindSpeedGustMPH,Humidity,HourlyPrecipIn,Conditions,Clouds,dailyrainin,SoftwareType,DateUTC
2013-03-12 00:01:00,43.0,34.0,-100.00,SW,224,14.0,16.0,71,0.00,,,-99.99,,2013-03-12 06:01:00,
2013-03-12 00:11:00,43.0,34.0,-100.00,SW,219,12.0,14.0,71,0.00,,,-99.99,,2013-03-12 06:11:00,
2013-03-12 00:22:00,42.0,33.0,-100.00,SW,217,13.0,15.0,70,0.00,,,-99.99,,2013-03-12 06:22:00,
2013-03-12 00:31:00,42.0,33.0,-100.00,SW,217,13.0,15.0,70,0.00,,,-99.99,,2013-03-12 06:31:00,
2013-03-12 00:42:00,42.0,33.0,-100.00,SW,222,13.0,16.0,71,0.00,,,-99.99,,2013-03-12 06:42:00,
2013-03-12 00:52:00,42.0,33.0,-100.00,SW,217,13.0,17.0,71,0.00,,,-99.99,,2013-03-12 06:52:00,
2013-03-12 01:02:00,42.0,33.0,-100.00,SW,217,13.0,17.0,71,0.00,,,-99.99,,2013-03-12 07:02:00,
2013-03-12 01:12:00,42.0,33.0,-100.00,SW,220,13.0,16.0,71,0.00,,,-99.99,,2013-03-12 07:12:00,
2013-03-12 01:21:00,42.0,33.0,-100.00,SW,219,15.0,17.0,70,0.00,,,-99.99,,2013-03-12 07:21:00,
2013-03-12 01:32:00,42.0,33.0,-100.00,SW,219,15.0,17.0,70,0.00,,,-99.99,,2013-03-12 07:32:00,
2013-03-12 01:42:00,41.0,33.0,-100.00,SW,222,14.0,17.0,70,0.00,,,-99.99,,2013-03-12 07:42:00,
2013-03-12 01:52:00,41.0,33.0,-100.00,SW,217,13.0,15.0,72,0.00,,,-99.99,,2013-03-12 07:52:00,
2013-03-12 02:02:00,41.0,33.0,-100.00,SW,217,13.0,15.0,72,0.00,,,-99.99,,2013-03-12 08:02:00,
2013-03-12 02:12:00,41.0,33.0,-100.00,SW,223,10.0,14.0,73,0.00,,,-99.99,,2013-03-12 08:12:00,
2013-03-12 02:22:00,41.0,33.0,-100.00,SW,223,10.0,14.0,73,0.00,,,-99.99,,2013-03-12 08:22:00,
2013-03-12 02:32:00,41.0,33.0,-100.00,SW,223,10.0,14.0,73,0.00,,,-99.99,,2013-03-12 08:32:00,
2013-03-12 02:42:00,40.0,33.0,-100.00,SSW,213,12.0,14.0,74,0.00,,,-99.99,,2013-03-12 08:42:00,
2013-03-12 02:52:00,40.0,32.0,-100.00,SW,220,11.0,15.0,73,0.00,,,-99.99,,2013-03-12 08:52:00,
2013-03-12 03:03:00,40.0,32.0,-100.00,SW,220,11.0,15.0,73,0.00,,,-99.99,,2013-03-12 09:03:00,
2013-03-12 03:11:00,39.0,32.0,-100.00,SW,217,9.0,11.0,75,0.00,,,-99.99,,2013-03-12 09:11:00,
2013-03-12 03:22:00,39.0,32.0,-100.00,SW,217,9.0,11.0,75,0.00,,,-99.99,,2013-03-12 09:22:00,
2013-03-12 03:32:00,39.0,32.0,-100.00,SW,217,9.0,11.0,75,0.00,,,-99.99,,2013-03-12 09:32:00,
2013-03-12 03:42:00,38.0,32.0,-100.00,SSW,213,8.0,9.0,77,0.00,,,-99.99,,2013-03-12 09:42:00,
2013-03-12 03:52:00,38.0,31.0,-100.00,SSW,208,6.0,7.0,78,0.00,,,-99.99,,2013-03-12 09:52:00,
2013-03-12 04:02:00,38.0,31.0,-100.00,SSW,208,6.0,7.0,78,0.00,,,-99.99,,2013-03-12 10:02:00,
2013-03-12 04:12:00,36.0,31.0,-100.00,SSW,206,7.0,9.0,84,0.00,,,-99.99,,2013-03-12 10:12:00,
2013-03-12 04:22:00,35.0,31.0,-100.00,SW,216,7.0,8.0,85,0.00,,,-99.99,,2013-03-12 10:22:00,
2013-03-12 04:32:00,35.0,31.0,-100.00,SW,216,7.0,8.0,85,0.00,,,-99.99,,2013-03-12 10:32:00,
2013-03-12 04:42:00,36.0,32.0,-100.00,SSW,208,7.0,8.0,86,0.00,,,-99.99,,2013-03-12 10:42:00,
2013-03-12 04:52:00,35.0,32.0,-100.00,SSW,200,6.0,7.0,88,0.00,,,-99.99,,2013-03-12 10:52:00,
2013-03-12 05:01:00,35.0,32.0,-100.00,SSW,200,6.0,7.0,88,0.00,,,-99.99,,2013-03-12 11:01:00,
2013-03-12 05:12:00,35.0,32.0,-100.00,SSW,200,3.0,6.0,89,0.00,,,-99.99,,2013-03-12 11:12:00,
2013-03-12 05:22:00,35.0,32.0,-100.00,SSW,200,3.0,6.0,89,0.00,,,-99.99,,2013-03-12 11:22:00,
2013-03-12 05:32:00,35.0,32.0,-100.00,SSW,200,3.0,6.0,89,0.00,,,-99.99,,2013-03-12 11:32:00,
2013-03-12 05:42:00,35.0,32.0,-100.00,SSW,208,6.0,7.0,89,0.00,,,-99.99,,2013-03-12 11:42:00,
2013-03-12 05:52:00,35.0,32.0,-100.00,SSW,196,7.0,9.0,87,0.00,,,-99.99,,2013-03-12 11:52:00,
2013-03-12 06:02:00,35.0,32.0,-100.00,SSW,196,7.0,9.0,87,0.00,,,-99.99,,2013-03-12 12:02:00,
2013-03-12 06:12:00,35.0,32.0,-100.00,SSW,196,7.0,9.0,87,0.00,,,-99.99,,2013-03-12 12:12:00,
2013-03-12 06:22:00,33.0,31.0,-100.00,SSE,157,7.0,8.0,94,0.00,,,-99.99,,2013-03-12 12:22:00,
2013-03-12 06:32:00,33.0,31.0,-100.00,SSE,157,7.0,8.0,94,0.00,,,-99.99,,2013-03-12 12:32:00,
2013-03-12 06:42:00,33.0,31.0,-100.00,SSE,168,6.0,7.0,94,0.00,,,-99.99,,2013-03-12 12:42:00,
2013-03-12 06:52:00,33.0,32.0,-100.00,SSE,157,8.0,8.0,93,0.00,,,-99.99,,2013-03-12 12:52:00,
2013-03-12 07:01:00,33.0,32.0,-100.00,SSE,157,8.0,8.0,93,0.00,,,-99.99,,2013-03-12 13:01:00,
2013-03-12 07:12:00,35.0,32.0,-100.00,South,175,8.0,9.0,90,0.00,,,-99.99,,2013-03-12 13:12:00,
2013-03-12 07:22:00,35.0,32.0,-100.00,SSW,198,6.0,7.0,90,0.00,,,-99.99,,2013-03-12 13:22:00,
2013-03-12 07:32:00,35.0,32.0,-100.00,SSW,198,6.0,7.0,90,0.00,,,-99.99,,2013-03-12 13:32:00,
2013-03-12 07:42:00,34.0,31.0,-100.00,SE,127,4.0,5.0,89,0.00,,,-99.99,,2013-03-12 13:42:00,
2013-03-12 07:52:00,35.0,32.0,-100.00,SSW,192,6.0,8.0,88,0.00,,,-99.99,,2013-03-12 13:52:00,
2013-03-12 08:02:00,35.0,32.0,-100.00,SSW,192,6.0,8.0,88,0.00,,,-99.99,,2013-03-12 14:02:00,
2013-03-12 08:12:00,35.0,32.0,-100.00,SSE,167,6.0,6.0,88,0.00,,,-99.99,,2013-03-12 14:12:00,
2013-03-12 08:22:00,36.0,32.0,-100.00,South,179,6.0,7.0,87,0.00,,,-99.99,,2013-03-12 14:22:00,
2013-03-12 08:32:00,36.0,32.0,-100.00,South,179,6.0,7.0,87,0.00,,,-99.99,,2013-03-12 14:32:00,
2013-03-12 08:42:00,36.0,32.0,-100.00,SSE,160,8.0,8.0,85,0.00,,,-99.99,,2013-03-12 14:42:00,
2013-03-12 08:53:00,35.0,32.0,-100.00,SSE,148,6.0,8.0,87,0.00,,,-99.99,,2013-03-12 14:53:00,
2013-03-12 09:01:00,35.0,32.0,-100.00,SSE,148,6.0,8.0,87,0.00,,,-99.99,,2013-03-12 15:01:00,
2013-03-12 09:12:00,35.0,33.0,-100.00,SSE,161,5.0,6.0,90,0.00,,,-99.99,,2013-03-12 15:12:00,
2013-03-12 09:22:00,38.0,34.0,-100.00,South,175,6.0,7.0,86,0.00,,,-99.99,,2013-03-12 15:22:00,
2013-03-12 09:32:00,38.0,34.0,-100.00,South,175,6.0,7.0,86,0.00,,,-99.99,,2013-03-12 15:32:00,
2013-03-12 09:42:00,38.0,34.0,-100.00,South,175,5.0,6.0,84,0.00,,,-99.99,,2013-03-12 15:42:00,
2013-03-12 09:53:00,40.0,34.0,-100.00,SSW,196,7.0,10.0,80,0.00,,,-99.99,,2013-03-12 15:53:00,
2013-03-12 10:02:00,40.0,34.0,-100.00,SSW,196,7.0,10.0,80,0.00,,,-99.99,,2013-03-12 16:02:00,
2013-03-12 10:12:00,40.0,34.0,-100.00,SSW,196,7.0,10.0,80,0.00,,,-99.99,,2013-03-12 16:12:00,
2013-03-12 10:22:00,42.0,34.0,-100.00,SSW,212,9.0,11.0,74,0.00,,,-99.99,,2013-03-12 16:22:00,
2013-03-12 10:32:00,42.0,34.0,-100.00,SSW,212,9.0,11.0,74,0.00,,,-99.99,,2013-03-12 16:32:00,
2013-03-12 10:43:00,43.0,35.0,-100.00,SSW,212,11.0,13.0,72,0.00,,,-99.99,,2013-03-12 16:43:00,
2013-03-12 10:52:00,43.0,34.0,-100.00,SW,219,11.0,13.0,69,0.00,,,-99.99,,2013-03-12 16:52:00,
2013-03-12 11:02:00,43.0,34.0,-100.00,SW,219,11.0,13.0,69,0.00,,,-99.99,,2013-03-12 17:02:00,
2013-03-12 11:12:00,44.0,34.0,-100.00,SW,223,9.0,11.0,69,0.00,,,-99.99,,2013-03-12 17:12:00,
2013-03-12 11:22:00,45.0,35.0,-100.00,SW,222,9.0,13.0,67,0.00,,,-99.99,,2013-03-12 17:22:00,
2013-03-12 11:33:00,45.0,35.0,-100.00,SW,222,9.0,13.0,67,0.00,,,-99.99,,2013-03-12 17:33:00,
2013-03-12 11:43:00,45.0,35.0,-100.00,SW,229,11.0,15.0,66,0.00,,,-99.99,,2013-03-12 17:43:00,
2013-03-12 11:53:00,45.0,35.0,-100.00,SW,216,12.0,15.0,68,0.00,,,-99.99,,2013-03-12 17:53:00,
2013-03-12 12:02:00,45.0,35.0,-100.00,SW,216,12.0,15.0,68,0.00,,,-99.99,,2013-03-12 18:02:00,
2013-03-12 12:12:00,46.0,35.0,-100.00,SW,220,12.0,13.0,64,0.00,,,-99.99,,2013-03-12 18:12:00,
2013-03-12 12:22:00,47.0,36.0,-100.00,SW,215,14.0,17.0,65,0.00,,,-99.99,,2013-03-12 18:22:00,
2013-03-12 12:32:00,47.0,36.0,-100.00,SW,215,14.0,17.0,65,0.00,,,-99.99,,2013-03-12 18:32:00,
2013-03-12 12:42:00,47.0,36.0,-100.00,SSW,203,15.0,18.0,64,0.00,,,-99.99,,2013-03-12 18:42:00,
2013-03-12 12:53:00,47.0,37.0,-100.00,SW,219,13.0,15.0,66,0.00,,,-99.99,,2013-03-12 18:53:00,
2013-03-12 13:03:00,47.0,37.0,-100.00,SW,219,13.0,15.0,66,0.00,,,-99.99,,2013-03-12 19:03:00,
2013-03-12 13:12:00,48.0,36.0,-100.00,SW,217,10.0,12.0,62,0.00,,,-99.99,,2013-03-12 19:12:00,
2013-03-12 13:22:00,47.0,37.0,-100.00,SW,215,12.0,15.0,66,0.00,,,-99.99,,2013-03-12 19:22:00,
2013-03-12 13:32:00,47.0,37.0,-100.00,SW,215,12.0,15.0,66,0.00,,,-99.99,,2013-03-12 19:32:00,
2013-03-12 13:43:00,48.0,36.0,-100.00,SSW,206,8.0,12.0,63,0.00,,,-99.99,,2013-03-12 19:43:00,
2013-03-12 13:53:00,49.0,37.0,-100.00,SSW,202,10.0,12.0,63,0.00,,,-99.99,,2013-03-12 19:53:00,
2013-03-12 14:01:00,49.0,37.0,-100.00,SSW,202,10.0,12.0,63,0.00,,,-99.99,,2013-03-12 20:01:00,
2013-03-12 14:12:00,50.0,37.0,-100.00,SSW,213,10.0,13.0,63,0.00,,,-99.99,,2013-03-12 20:12:00,
2013-03-12 14:22:00,51.0,38.0,-100.00,SSW,210,10.0,13.0,61,0.00,,,-99.99,,2013-03-12 20:22:00,
2013-03-12 14:32:00,51.0,38.0,-100.00,SSW,210,10.0,13.0,61,0.00,,,-99.99,,2013-03-12 20:32:00,
2013-03-12 14:42:00,51.0,37.0,-100.00,SW,227,11.0,14.0,59,0.00,,,-99.99,,2013-03-12 20:42:00,
2013-03-12 14:53:00,51.0,37.0,-100.00,SW,227,11.0,14.0,59,0.00,,,-99.99,,2013-03-12 20:53:00,
2013-03-12 15:02:00,51.0,37.0,-100.00,SW,227,11.0,14.0,59,0.00,,,-99.99,,2013-03-12 21:02:00,
2013-03-12 15:12:00,52.0,38.0,-100.00,SW,226,11.0,14.0,57,0.00,,,-99.99,,2013-03-12 21:12:00,
2013-03-12 15:22:00,53.0,37.0,-100.00,SSW,210,8.0,15.0,53,0.00,,,-99.99,,2013-03-12 21:22:00,
2013-03-12 15:32:00,53.0,37.0,-100.00,SSW,210,8.0,15.0,53,0.00,,,-99.99,,2013-03-12 21:32:00,
2013-03-12 15:42:00,53.0,38.0,-100.00,SSW,213,13.0,16.0,55,0.00,,,-99.99,,2013-03-12 21:42:00,
2013-03-12 15:52:00,53.0,38.0,-100.00,SSW,200,9.0,11.0,56,0.00,,,-99.99,,2013-03-12 21:52:00,
2013-03-12 16:02:00,53.0,38.0,-100.00,SSW,200,9.0,11.0,56,0.00,,,-99.99,,2013-03-12 22:02:00,
2013-03-12 16:12:00,55.0,38.0,-100.00,SSW,199,8.0,12.0,52,0.00,,,-99.99,,2013-03-12 22:12:00,
2013-03-12 16:22:00,54.0,37.0,-100.00,SSW,209,6.0,9.0,54,0.00,,,-99.99,,2013-03-12 22:22:00,
2013-03-12 16:32:00,54.0,37.0,-100.00,SSW,209,6.0,9.0,54,0.00,,,-99.99,,2013-03-12 22:32:00,
2013-03-12 16:42:00,55.0,37.0,-100.00,SSE,158,9.0,11.0,51,0.00,,,-99.99,,2013-03-12 22:42:00,
2013-03-12 16:53:00,55.0,38.0,-100.00,SSE,150,9.0,11.0,53,0.00,,,-99.99,,2013-03-12 22:53:00,
2013-03-12 17:02:00,55.0,38.0,-100.00,SSE,150,9.0,11.0,53,0.00,,,-99.99,,2013-03-12 23:02:00,
2013-03-12 17:12:00,55.0,38.0,-100.00,SSE,148,11.0,14.0,54,0.00,,,-99.99,,2013-03-12 23:12:00,
2013-03-12 17:22:00,55.0,38.0,-100.00,SSE,148,9.0,11.0,52,0.00,,,-99.99,,2013-03-12 23:22:00,
2013-03-12 17:34:00,55.0,38.0,-100.00,SSE,148,9.0,11.0,52,0.00,,,-99.99,,2013-03-12 23:34:00,
2013-03-12 17:43:00,55.0,39.0,-100.00,SSE,151,11.0,15.0,54,0.00,,,-99.99,,2013-03-12 23:43:00,
2013-03-12 17:52:00,54.0,39.0,-100.00,SSE,150,11.0,14.0,55,0.00,,,-99.99,,2013-03-12 23:52:00,
2013-03-12 18:02:00,54.0,39.0,-100.00,SSE,150,11.0,14.0,55,0.00,,,-99.99,,2013-03-13 00:02:00,
2013-03-12 18:12:00,53.0,39.0,-100.00,SSE,147,12.0,15.0,57,0.00,,,-99.99,,2013-03-13 00:12:00,
2013-03-12 18:22:00,52.0,39.0,-100.00,SE,145,15.0,18.0,60,0.00,,,-99.99,,2013-03-13 00:22:00,
2013-03-12 18:32:00,52.0,39.0,-100.00,SE,145,15.0,18.0,60,0.00,,,-99.99,,2013-03-13 00:32:00,
2013-03-12 18:42:00,51.0,40.0,-100.00,SE,143,15.0,17.0,65,0.00,,,-99.99,,2013-03-13 00:42:00,
2013-03-12 18:53:00,51.0,39.0,-100.00,SE,130,11.0,17.0,65,0.00,,,-99.99,,2013-03-13 00:53:00,
2013-03-12 19:02:00,51.0,39.0,-100.00,SE,130,11.0,17.0,65,0.00,,,-99.99,,2013-03-13 01:02:00,
2013-03-12 19:12:00,50.0,39.0,-100.00,SE,131,14.0,19.0,65,0.00,,,-99.99,,2013-03-13 01:12:00,
2013-03-12 19:22:00,50.0,39.0,-100.00,SE,127,10.0,14.0,67,0.00,,,-99.99,,2013-03-13 01:22:00,
2013-03-12 19:31:00,50.0,39.0,-100.00,SE,127,10.0,14.0,67,0.00,,,-99.99,,2013-03-13 01:31:00,
2013-03-12 19:42:00,49.0,38.0,-100.00,SE,134,14.0,21.0,67,0.00,,,-99.99,,2013-03-13 01:42:00,
2013-03-12 19:52:00,49.0,38.0,-100.00,SE,137,15.0,18.0,67,0.00,,,-99.99,,2013-03-13 01:52:00,
2013-03-12 20:02:00,49.0,38.0,-100.00,SE,137,15.0,18.0,67,0.00,,,-99.99,,2013-03-13 02:02:00,
2013-03-12 20:12:00,48.0,38.0,-100.00,SE,143,16.0,19.0,68,0.00,,,-99.99,,2013-03-13 02:12:00,
2013-03-12 20:22:00,47.0,38.0,-100.00,SSE,147,16.0,18.0,70,0.00,,,-99.99,,2013-03-13 02:22:00,
2013-03-12 20:31:00,47.0,38.0,-100.00,SSE,147,16.0,18.0,70,0.00,,,-99.99,,2013-03-13 02:31:00,
2013-03-12 20:42:00,46.0,37.0,-100.00,SSE,148,14.0,17.0,71,0.00,,,-99.99,,2013-03-13 02:42:00,
2013-03-12 20:52:00,46.0,37.0,-100.00,SE,144,14.0,18.0,72,0.00,,,-99.99,,2013-03-13 02:52:00,
2013-03-12 21:01:00,46.0,37.0,-100.00,SE,144,14.0,18.0,72,0.00,,,-99.99,,2013-03-13 03:01:00,
2013-03-12 21:12:00,46.0,37.0,-100.00,SE,144,14.0,17.0,71,0.00,,,-99.99,,2013-03-13 03:12:00,
2013-03-12 21:22:00,45.0,37.0,-100.00,SSE,151,13.0,17.0,74,0.00,,,-99.99,,2013-03-13 03:22:00,
2013-03-12 21:31:00,45.0,37.0,-100.00,SSE,151,13.0,17.0,74,0.00,,,-99.99,,2013-03-13 03:31:00,
2013-03-12 21:42:00,45.0,37.0,-100.00,SE,145,13.0,17.0,74,0.00,,,-99.99,,2013-03-13 03:42:00,
2013-03-12 21:52:00,44.0,37.0,-100.00,SSE,150,15.0,19.0,75,0.00,,,-99.99,,2013-03-13 03:52:00,
2013-03-12 22:02:00,44.0,37.0,-100.00,SSE,150,15.0,19.0,75,0.00,,,-99.99,,2013-03-13 04:02:00,
2013-03-12 22:12:00,44.0,37.0,-100.00,SSE,150,15.0,17.0,75,0.00,,,-99.99,,2013-03-13 04:12:00,
2013-03-12 22:22:00,44.0,37.0,-100.00,SE,138,16.0,19.0,76,0.00,,,-99.99,,2013-03-13 04:22:00,
2013-03-12 22:31:00,44.0,37.0,-100.00,SE,138,16.0,19.0,76,0.00,,,-99.99,,2013-03-13 04:31:00,
2013-03-12 22:42:00,44.0,36.0,-100.00,SE,141,16.0,19.0,76,0.00,,,-99.99,,2013-03-13 04:42:00,
2013-03-12 22:53:00,44.0,36.0,-100.00,South,171,10.0,15.0,75,0.00,,,-99.99,,2013-03-13 04:53:00,
2013-03-12 23:01:00,44.0,36.0,-100.00,South,171,10.0,15.0,75,0.00,,,-99.99,,2013-03-13 05:01:00,
2013-03-12 23:12:00,44.0,37.0,-100.00,SSE,147,16.0,20.0,75,0.00,,,-99.99,,2013-03-13 05:12:00,
2013-03-12 23:22:00,44.0,36.0,-100.00,SSE,151,18.0,22.0,75,0.00,,,-99.99,,2013-03-13 05:22:00,
2013-03-12 23:32:00,44.0,36.0,-100.00,SSE,151,18.0,22.0,75,0.00,,,-99.99,,2013-03-13 05:32:00,
2013-03-12 23:42:00,44.0,36.0,-100.00,SSE,150,17.0,21.0,76,0.00,,,-99.99,,2013-03-13 05:42:00,
2013-03-12 23:52:00,44.0,36.0,-100.00,SSE,151,15.0,19.0,75,0.00,,,-99.99,,2013-03-13 05:52:00,